sensor_id;sensor_type;location;lat;lon;timestamp;P1;durP1;ratioP1;P2;durP2;ratioP2
81318;SDS011;70784;48.420;14.830;2023-07-20T00:00:06;5.00;;;1.92;;
81318;SDS011;70784;48.420;14.830;2023-07-20T00:02:51;4.20;;;2.22;;
81318;SDS011;70784;48.420;14.830;2023-07-20T00:05:36;3.67;;;1.70;;
81318;SDS011;70784;48.420;14.830;2023-07-20T00:08:21;3.88;;;1.98;;
81318;SDS011;70784;48.420;14.830;2023-07-20T00:11:05;3.58;;;1.90;;
81318;SDS011;70784;48.420;14.830;2023-07-20T00:13:50;5.53;;;1.70;;
81318;SDS011;70784;48.420;14.830;2023-07-20T00:16:34;2.55;;;1.45;;
81318;SDS011;70784;48.420;14.830;2023-07-20T00:19:19;2.97;;;1.63;;
81318;SDS011;70784;48.420;14.830;2023-07-20T00:22:03;2.22;;;1.48;;
81318;SDS011;70784;48.420;14.830;2023-07-20T00:24:49;1.73;;;1.17;;
81318;SDS011;70784;48.420;14.830;2023-07-20T00:27:33;1.90;;;1.25;;
81318;SDS011;70784;48.420;14.830;2023-07-20T00:30:18;4.68;;;2.10;;
81318;SDS011;70784;48.420;14.830;2023-07-20T00:33:03;2.63;;;1.42;;
81318;SDS011;70784;48.420;14.830;2023-07-20T00:35:47;5.30;;;1.88;;
81318;SDS011;70784;48.420;14.830;2023-07-20T00:38:32;3.53;;;1.77;;
81318;SDS011;70784;48.420;14.830;2023-07-20T00:41:16;3.35;;;1.90;;
81318;SDS011;70784;48.420;14.830;2023-07-20T00:44:01;2.33;;;1.52;;
81318;SDS011;70784;48.420;14.830;2023-07-20T00:46:46;3.38;;;1.52;;
81318;SDS011;70784;48.420;14.830;2023-07-20T00:49:31;5.38;;;2.42;;
81318;SDS011;70784;48.420;14.830;2023-07-20T00:52:16;4.78;;;2.30;;
81318;SDS011;70784;48.420;14.830;2023-07-20T00:55:01;4.22;;;1.90;;
81318;SDS011;70784;48.420;14.830;2023-07-20T00:57:45;2.45;;;1.80;;
81318;SDS011;70784;48.420;14.830;2023-07-20T01:00:30;2.83;;;2.15;;
81318;SDS011;70784;48.420;14.830;2023-07-20T01:03:15;3.78;;;1.92;;
81318;SDS011;70784;48.420;14.830;2023-07-20T01:15:13;3.55;;;1.52;;
81318;SDS011;70784;48.420;14.830;2023-07-20T01:17:58;3.67;;;2.03;;
81318;SDS011;70784;48.420;14.830;2023-07-20T01:20:45;4.55;;;1.83;;
81318;SDS011;70784;48.420;14.830;2023-07-20T01:29:47;3.30;;;1.95;;
81318;SDS011;70784;48.420;14.830;2023-07-20T01:32:57;3.78;;;1.92;;
81318;SDS011;70784;48.420;14.830;2023-07-20T01:35:43;2.70;;;2.15;;
81318;SDS011;70784;48.420;14.830;2023-07-20T01:38:30;3.60;;;1.88;;
81318;SDS011;70784;48.420;14.830;2023-07-20T01:41:15;2.75;;;2.08;;
81318;SDS011;70784;48.420;14.830;2023-07-20T01:44:01;3.97;;;2.35;;
81318;SDS011;70784;48.420;14.830;2023-07-20T01:46:48;3.85;;;2.08;;
81318;SDS011;70784;48.420;14.830;2023-07-20T01:49:32;4.45;;;2.33;;
81318;SDS011;70784;48.420;14.830;2023-07-20T01:52:17;3.35;;;1.67;;
81318;SDS011;70784;48.420;14.830;2023-07-20T01:55:01;3.85;;;2.38;;
81318;SDS011;70784;48.420;14.830;2023-07-20T01:57:46;3.13;;;2.30;;
81318;SDS011;70784;48.420;14.830;2023-07-20T02:00:30;3.95;;;1.60;;
81318;SDS011;70784;48.420;14.830;2023-07-20T02:03:15;3.45;;;1.77;;
81318;SDS011;70784;48.420;14.830;2023-07-20T02:05:59;3.28;;;1.65;;
81318;SDS011;70784;48.420;14.830;2023-07-20T02:08:44;2.85;;;1.80;;
81318;SDS011;70784;48.420;14.830;2023-07-20T02:11:28;4.45;;;2.13;;
81318;SDS011;70784;48.420;14.830;2023-07-20T02:14:13;3.10;;;1.77;;
81318;SDS011;70784;48.420;14.830;2023-07-20T02:16:57;3.53;;;2.10;;
81318;SDS011;70784;48.420;14.830;2023-07-20T02:19:43;3.05;;;1.92;;
81318;SDS011;70784;48.420;14.830;2023-07-20T02:22:28;3.10;;;2.20;;
81318;SDS011;70784;48.420;14.830;2023-07-20T02:25:12;3.28;;;1.80;;
81318;SDS011;70784;48.420;14.830;2023-07-20T02:27:57;3.78;;;2.05;;
81318;SDS011;70784;48.420;14.830;2023-07-20T02:30:42;3.20;;;1.95;;
81318;SDS011;70784;48.420;14.830;2023-07-20T02:33:27;3.88;;;1.75;;
81318;SDS011;70784;48.420;14.830;2023-07-20T02:36:11;4.30;;;1.75;;
81318;SDS011;70784;48.420;14.830;2023-07-20T02:38:56;3.78;;;1.88;;
81318;SDS011;70784;48.420;14.830;2023-07-20T02:41:40;4.60;;;2.40;;
81318;SDS011;70784;48.420;14.830;2023-07-20T02:44:25;3.45;;;1.85;;
81318;SDS011;70784;48.420;14.830;2023-07-20T02:47:11;4.50;;;2.25;;
81318;SDS011;70784;48.420;14.830;2023-07-20T02:49:56;4.63;;;2.05;;
81318;SDS011;70784;48.420;14.830;2023-07-20T02:52:41;4.85;;;2.15;;
81318;SDS011;70784;48.420;14.830;2023-07-20T02:55:25;3.72;;;1.90;;
81318;SDS011;70784;48.420;14.830;2023-07-20T02:58:10;3.25;;;2.03;;
81318;SDS011;70784;48.420;14.830;2023-07-20T03:00:55;4.78;;;1.88;;
81318;SDS011;70784;48.420;14.830;2023-07-20T03:03:39;2.70;;;1.42;;
81318;SDS011;70784;48.420;14.830;2023-07-20T03:06:24;4.75;;;1.63;;
81318;SDS011;70784;48.420;14.830;2023-07-20T03:09:08;6.32;;;2.03;;
81318;SDS011;70784;48.420;14.830;2023-07-20T03:11:53;3.17;;;1.75;;
81318;SDS011;70784;48.420;14.830;2023-07-20T03:14:38;4.30;;;1.15;;
81318;SDS011;70784;48.420;14.830;2023-07-20T03:17:22;3.10;;;1.63;;
81318;SDS011;70784;48.420;14.830;2023-07-20T03:20:07;4.93;;;1.80;;
81318;SDS011;70784;48.420;14.830;2023-07-20T03:22:54;5.95;;;2.08;;
81318;SDS011;70784;48.420;14.830;2023-07-20T03:25:38;7.05;;;2.13;;
81318;SDS011;70784;48.420;14.830;2023-07-20T03:28:22;3.13;;;1.92;;
81318;SDS011;70784;48.420;14.830;2023-07-20T03:31:07;2.80;;;1.85;;
81318;SDS011;70784;48.420;14.830;2023-07-20T03:33:51;3.33;;;1.52;;
81318;SDS011;70784;48.420;14.830;2023-07-20T03:36:36;2.97;;;1.50;;
81318;SDS011;70784;48.420;14.830;2023-07-20T03:39:22;5.07;;;1.65;;
81318;SDS011;70784;48.420;14.830;2023-07-20T03:42:06;4.20;;;1.70;;
81318;SDS011;70784;48.420;14.830;2023-07-20T03:44:51;2.90;;;1.42;;
81318;SDS011;70784;48.420;14.830;2023-07-20T03:47:35;3.70;;;1.92;;
81318;SDS011;70784;48.420;14.830;2023-07-20T03:50:20;3.47;;;1.80;;
81318;SDS011;70784;48.420;14.830;2023-07-20T03:53:04;3.17;;;2.10;;
81318;SDS011;70784;48.420;14.830;2023-07-20T03:55:49;3.28;;;1.92;;
81318;SDS011;70784;48.420;14.830;2023-07-20T03:58:35;4.10;;;1.52;;
81318;SDS011;70784;48.420;14.830;2023-07-20T04:01:20;4.93;;;1.88;;
81318;SDS011;70784;48.420;14.830;2023-07-20T04:04:06;3.40;;;1.88;;
81318;SDS011;70784;48.420;14.830;2023-07-20T04:06:52;3.17;;;2.25;;
81318;SDS011;70784;48.420;14.830;2023-07-20T04:09:37;3.58;;;1.73;;
81318;SDS011;70784;48.420;14.830;2023-07-20T04:12:21;3.97;;;1.83;;
81318;SDS011;70784;48.420;14.830;2023-07-20T04:15:06;2.83;;;1.80;;
81318;SDS011;70784;48.420;14.830;2023-07-20T04:17:51;3.47;;;1.98;;
81318;SDS011;70784;48.420;14.830;2023-07-20T04:20:35;3.90;;;2.20;;
81318;SDS011;70784;48.420;14.830;2023-07-20T04:23:21;2.28;;;1.75;;
81318;SDS011;70784;48.420;14.830;2023-07-20T04:26:05;2.22;;;1.45;;
81318;SDS011;70784;48.420;14.830;2023-07-20T04:28:50;3.03;;;1.88;;
81318;SDS011;70784;48.420;14.830;2023-07-20T04:31:36;6.97;;;1.85;;
81318;SDS011;70784;48.420;14.830;2023-07-20T04:34:21;4.13;;;1.67;;
81318;SDS011;70784;48.420;14.830;2023-07-20T04:37:05;4.05;;;1.98;;
81318;SDS011;70784;48.420;14.830;2023-07-20T04:39:50;2.83;;;1.60;;
81318;SDS011;70784;48.420;14.830;2023-07-20T04:42:35;5.28;;;2.08;;
81318;SDS011;70784;48.420;14.830;2023-07-20T04:45:19;3.90;;;2.13;;
81318;SDS011;70784;48.420;14.830;2023-07-20T04:48:06;5.50;;;2.28;;
81318;SDS011;70784;48.420;14.830;2023-07-20T04:50:54;6.68;;;1.73;;
81318;SDS011;70784;48.420;14.830;2023-07-20T04:53:39;2.60;;;1.75;;
81318;SDS011;70784;48.420;14.830;2023-07-20T04:56:24;3.50;;;1.70;;
81318;SDS011;70784;48.420;14.830;2023-07-20T04:59:09;2.83;;;1.65;;
81318;SDS011;70784;48.420;14.830;2023-07-20T05:01:53;3.65;;;2.08;;
81318;SDS011;70784;48.420;14.830;2023-07-20T05:04:37;2.78;;;1.67;;
81318;SDS011;70784;48.420;14.830;2023-07-20T05:07:22;3.28;;;2.00;;
81318;SDS011;70784;48.420;14.830;2023-07-20T05:10:06;4.18;;;2.35;;
81318;SDS011;70784;48.420;14.830;2023-07-20T05:12:51;5.38;;;2.20;;
81318;SDS011;70784;48.420;14.830;2023-07-20T05:15:36;5.88;;;2.33;;
81318;SDS011;70784;48.420;14.830;2023-07-20T05:18:20;4.05;;;2.30;;
81318;SDS011;70784;48.420;14.830;2023-07-20T05:21:05;4.70;;;2.15;;
81318;SDS011;70784;48.420;14.830;2023-07-20T05:23:50;4.38;;;2.38;;
81318;SDS011;70784;48.420;14.830;2023-07-20T05:26:34;3.40;;;2.03;;
81318;SDS011;70784;48.420;14.830;2023-07-20T05:29:19;2.92;;;2.15;;
81318;SDS011;70784;48.420;14.830;2023-07-20T05:32:03;3.38;;;2.08;;
81318;SDS011;70784;48.420;14.830;2023-07-20T05:34:51;4.40;;;2.08;;
81318;SDS011;70784;48.420;14.830;2023-07-20T05:37:36;3.20;;;2.05;;
81318;SDS011;70784;48.420;14.830;2023-07-20T05:40:22;4.30;;;2.15;;
81318;SDS011;70784;48.420;14.830;2023-07-20T05:43:06;5.00;;;2.38;;
81318;SDS011;70784;48.420;14.830;2023-07-20T05:45:51;3.38;;;1.83;;
81318;SDS011;70784;48.420;14.830;2023-07-20T05:48:36;2.05;;;1.20;;
81318;SDS011;70784;48.420;14.830;2023-07-20T05:51:21;2.95;;;1.65;;
81318;SDS011;70784;48.420;14.830;2023-07-20T05:54:05;1.73;;;1.35;;
81318;SDS011;70784;48.420;14.830;2023-07-20T05:56:50;3.63;;;1.55;;
81318;SDS011;70784;48.420;14.830;2023-07-20T05:59:35;2.35;;;1.70;;
81318;SDS011;70784;48.420;14.830;2023-07-20T06:02:20;1.88;;;1.38;;
81318;SDS011;70784;48.420;14.830;2023-07-20T06:05:04;3.47;;;1.95;;
81318;SDS011;70784;48.420;14.830;2023-07-20T06:07:50;2.67;;;1.42;;
81318;SDS011;70784;48.420;14.830;2023-07-20T06:10:34;2.55;;;1.30;;
81318;SDS011;70784;48.420;14.830;2023-07-20T06:13:19;4.22;;;1.40;;
81318;SDS011;70784;48.420;14.830;2023-07-20T06:16:03;3.53;;;1.70;;
81318;SDS011;70784;48.420;14.830;2023-07-20T06:18:48;2.05;;;1.30;;
81318;SDS011;70784;48.420;14.830;2023-07-20T06:21:33;5.38;;;1.90;;
81318;SDS011;70784;48.420;14.830;2023-07-20T06:24:17;3.35;;;1.45;;
81318;SDS011;70784;48.420;14.830;2023-07-20T06:27:02;5.57;;;1.83;;
81318;SDS011;70784;48.420;14.830;2023-07-20T06:29:47;2.00;;;1.50;;
81318;SDS011;70784;48.420;14.830;2023-07-20T06:32:31;2.88;;;1.63;;
81318;SDS011;70784;48.420;14.830;2023-07-20T06:35:16;3.00;;;1.83;;
81318;SDS011;70784;48.420;14.830;2023-07-20T06:38:02;3.28;;;1.90;;
81318;SDS011;70784;48.420;14.830;2023-07-20T06:40:48;3.70;;;2.13;;
81318;SDS011;70784;48.420;14.830;2023-07-20T06:43:33;3.42;;;2.05;;
81318;SDS011;70784;48.420;14.830;2023-07-20T06:46:17;2.72;;;1.48;;
81318;SDS011;70784;48.420;14.830;2023-07-20T06:49:02;4.68;;;2.08;;
81318;SDS011;70784;48.420;14.830;2023-07-20T06:51:46;3.38;;;1.48;;
81318;SDS011;70784;48.420;14.830;2023-07-20T06:54:31;1.98;;;1.35;;
81318;SDS011;70784;48.420;14.830;2023-07-20T06:57:15;3.15;;;1.33;;
81318;SDS011;70784;48.420;14.830;2023-07-20T06:59:59;2.78;;;1.13;;
81318;SDS011;70784;48.420;14.830;2023-07-20T07:02:44;5.65;;;2.15;;
81318;SDS011;70784;48.420;14.830;2023-07-20T07:05:28;4.55;;;2.08;;
81318;SDS011;70784;48.420;14.830;2023-07-20T07:08:13;1.00;;;0.73;;
81318;SDS011;70784;48.420;14.830;2023-07-20T07:10:57;3.60;;;1.17;;
81318;SDS011;70784;48.420;14.830;2023-07-20T07:13:41;2.63;;;1.40;;
81318;SDS011;70784;48.420;14.830;2023-07-20T07:16:26;4.00;;;2.10;;
81318;SDS011;70784;48.420;14.830;2023-07-20T07:19:10;3.53;;;2.20;;
81318;SDS011;70784;48.420;14.830;2023-07-20T07:21:55;3.38;;;1.70;;
81318;SDS011;70784;48.420;14.830;2023-07-20T07:24:39;3.60;;;2.08;;
81318;SDS011;70784;48.420;14.830;2023-07-20T07:27:26;1.38;;;0.88;;
81318;SDS011;70784;48.420;14.830;2023-07-20T07:30:10;2.08;;;1.33;;
81318;SDS011;70784;48.420;14.830;2023-07-20T07:32:56;2.33;;;1.60;;
81318;SDS011;70784;48.420;14.830;2023-07-20T07:35:40;1.83;;;1.42;;
81318;SDS011;70784;48.420;14.830;2023-07-20T07:38:24;5.57;;;2.40;;
81318;SDS011;70784;48.420;14.830;2023-07-20T07:41:09;3.72;;;1.67;;
81318;SDS011;70784;48.420;14.830;2023-07-20T07:43:53;3.13;;;2.22;;
81318;SDS011;70784;48.420;14.830;2023-07-20T07:46:38;5.40;;;2.50;;
81318;SDS011;70784;48.420;14.830;2023-07-20T07:49:22;4.03;;;2.47;;
81318;SDS011;70784;48.420;14.830;2023-07-20T07:52:07;4.10;;;2.03;;
81318;SDS011;70784;48.420;14.830;2023-07-20T07:54:52;2.45;;;1.33;;
81318;SDS011;70784;48.420;14.830;2023-07-20T07:57:37;3.25;;;2.03;;
81318;SDS011;70784;48.420;14.830;2023-07-20T08:00:21;3.00;;;2.40;;
81318;SDS011;70784;48.420;14.830;2023-07-20T08:03:06;5.15;;;1.88;;
81318;SDS011;70784;48.420;14.830;2023-07-20T08:05:53;3.75;;;2.63;;
81318;SDS011;70784;48.420;14.830;2023-07-20T08:08:39;3.15;;;2.35;;
81318;SDS011;70784;48.420;14.830;2023-07-20T08:11:24;3.45;;;1.70;;
81318;SDS011;70784;48.420;14.830;2023-07-20T08:14:08;2.58;;;1.83;;
81318;SDS011;70784;48.420;14.830;2023-07-20T08:16:53;4.53;;;2.15;;
81318;SDS011;70784;48.420;14.830;2023-07-20T08:19:38;2.95;;;2.03;;
81318;SDS011;70784;48.420;14.830;2023-07-20T08:22:25;3.88;;;2.08;;
81318;SDS011;70784;48.420;14.830;2023-07-20T08:25:10;7.28;;;2.17;;
81318;SDS011;70784;48.420;14.830;2023-07-20T08:27:54;2.80;;;2.35;;
81318;SDS011;70784;48.420;14.830;2023-07-20T08:30:40;3.88;;;2.17;;
81318;SDS011;70784;48.420;14.830;2023-07-20T08:33:28;1.98;;;1.50;;
81318;SDS011;70784;48.420;14.830;2023-07-20T08:36:17;4.30;;;2.33;;
81318;SDS011;70784;48.420;14.830;2023-07-20T08:39:02;2.90;;;1.75;;
81318;SDS011;70784;48.420;14.830;2023-07-20T08:41:47;2.70;;;1.80;;
81318;SDS011;70784;48.420;14.830;2023-07-20T08:44:33;2.47;;;1.65;;
81318;SDS011;70784;48.420;14.830;2023-07-20T08:47:18;2.00;;;1.40;;
81318;SDS011;70784;48.420;14.830;2023-07-20T08:50:05;1.52;;;1.10;;
81318;SDS011;70784;48.420;14.830;2023-07-20T08:52:52;3.20;;;2.15;;
81318;SDS011;70784;48.420;14.830;2023-07-20T08:55:38;5.30;;;2.35;;
81318;SDS011;70784;48.420;14.830;2023-07-20T08:58:24;2.05;;;1.02;;
81318;SDS011;70784;48.420;14.830;2023-07-20T09:01:10;2.15;;;1.25;;
81318;SDS011;70784;48.420;14.830;2023-07-20T09:03:55;3.40;;;1.10;;
81318;SDS011;70784;48.420;14.830;2023-07-20T09:06:41;1.65;;;1.02;;
81318;SDS011;70784;48.420;14.830;2023-07-20T09:09:26;2.53;;;1.15;;
81318;SDS011;70784;48.420;14.830;2023-07-20T09:12:14;1.58;;;1.00;;
81318;SDS011;70784;48.420;14.830;2023-07-20T09:15:00;2.38;;;0.95;;
81318;SDS011;70784;48.420;14.830;2023-07-20T09:17:45;0.98;;;0.57;;
81318;SDS011;70784;48.420;14.830;2023-07-20T09:20:34;3.75;;;2.08;;
81318;SDS011;70784;48.420;14.830;2023-07-20T09:23:21;3.30;;;1.80;;
81318;SDS011;70784;48.420;14.830;2023-07-20T09:26:15;3.17;;;1.73;;
81318;SDS011;70784;48.420;14.830;2023-07-20T09:28:59;4.03;;;1.80;;
81318;SDS011;70784;48.420;14.830;2023-07-20T09:31:48;2.20;;;1.02;;
81318;SDS011;70784;48.420;14.830;2023-07-20T09:34:42;6.43;;;2.08;;
81318;SDS011;70784;48.420;14.830;2023-07-20T09:37:27;2.05;;;1.20;;
81318;SDS011;70784;48.420;14.830;2023-07-20T09:40:14;3.35;;;1.60;;
81318;SDS011;70784;48.420;14.830;2023-07-20T09:43:01;4.38;;;1.23;;
81318;SDS011;70784;48.420;14.830;2023-07-20T09:45:48;2.20;;;1.35;;
81318;SDS011;70784;48.420;14.830;2023-07-20T09:48:32;1.75;;;0.93;;
81318;SDS011;70784;48.420;14.830;2023-07-20T09:51:17;4.53;;;1.23;;
81318;SDS011;70784;48.420;14.830;2023-07-20T09:54:02;1.63;;;0.68;;
81318;SDS011;70784;48.420;14.830;2023-07-20T09:56:48;4.35;;;2.03;;
81318;SDS011;70784;48.420;14.830;2023-07-20T09:59:34;4.18;;;1.45;;
81318;SDS011;70784;48.420;14.830;2023-07-20T10:02:25;2.08;;;1.30;;
81318;SDS011;70784;48.420;14.830;2023-07-20T10:05:17;2.80;;;1.35;;
81318;SDS011;70784;48.420;14.830;2023-07-20T10:08:03;2.33;;;1.30;;
81318;SDS011;70784;48.420;14.830;2023-07-20T10:10:51;3.72;;;1.35;;
81318;SDS011;70784;48.420;14.830;2023-07-20T10:13:37;1.88;;;0.98;;
81318;SDS011;70784;48.420;14.830;2023-07-20T10:16:31;0.98;;;0.63;;
81318;SDS011;70784;48.420;14.830;2023-07-20T10:19:23;4.85;;;1.50;;
81318;SDS011;70784;48.420;14.830;2023-07-20T10:22:12;2.47;;;0.90;;
81318;SDS011;70784;48.420;14.830;2023-07-20T10:25:00;3.10;;;1.77;;
81318;SDS011;70784;48.420;14.830;2023-07-20T10:27:45;2.53;;;0.90;;
81318;SDS011;70784;48.420;14.830;2023-07-20T10:30:31;1.38;;;1.00;;
81318;SDS011;70784;48.420;14.830;2023-07-20T10:33:20;1.67;;;0.75;;
81318;SDS011;70784;48.420;14.830;2023-07-20T10:36:05;2.50;;;1.13;;
81318;SDS011;70784;48.420;14.830;2023-07-20T10:38:54;3.15;;;1.17;;
81318;SDS011;70784;48.420;14.830;2023-07-20T10:41:41;4.43;;;1.35;;
81318;SDS011;70784;48.420;14.830;2023-07-20T10:44:25;1.35;;;0.80;;
81318;SDS011;70784;48.420;14.830;2023-07-20T10:47:10;2.03;;;1.23;;
81318;SDS011;70784;48.420;14.830;2023-07-20T10:49:59;1.20;;;0.85;;
81318;SDS011;70784;48.420;14.830;2023-07-20T10:52:49;1.80;;;0.95;;
81318;SDS011;70784;48.420;14.830;2023-07-20T10:55:49;2.45;;;1.02;;
81318;SDS011;70784;48.420;14.830;2023-07-20T10:58:50;2.38;;;0.80;;
81318;SDS011;70784;48.420;14.830;2023-07-20T11:01:41;1.00;;;0.73;;
81318;SDS011;70784;48.420;14.830;2023-07-20T11:07:38;3.60;;;0.93;;
81318;SDS011;70784;48.420;14.830;2023-07-20T11:10:23;3.58;;;0.70;;
81318;SDS011;70784;48.420;14.830;2023-07-20T11:16:03;1.05;;;0.80;;
81318;SDS011;70784;48.420;14.830;2023-07-20T11:18:48;2.30;;;1.27;;
81318;SDS011;70784;48.420;14.830;2023-07-20T11:21:35;2.10;;;1.33;;
81318;SDS011;70784;48.420;14.830;2023-07-20T11:24:25;0.85;;;0.57;;
81318;SDS011;70784;48.420;14.830;2023-07-20T11:27:09;2.50;;;1.33;;
81318;SDS011;70784;48.420;14.830;2023-07-20T11:29:53;2.65;;;1.10;;
81318;SDS011;70784;48.420;14.830;2023-07-20T11:32:45;4.28;;;1.63;;
81318;SDS011;70784;48.420;14.830;2023-07-20T11:35:36;2.28;;;1.05;;
81318;SDS011;70784;48.420;14.830;2023-07-20T11:38:27;1.48;;;1.08;;
81318;SDS011;70784;48.420;14.830;2023-07-20T11:41:12;1.10;;;0.80;;
81318;SDS011;70784;48.420;14.830;2023-07-20T11:43:56;1.17;;;0.73;;
81318;SDS011;70784;48.420;14.830;2023-07-20T11:46:42;2.90;;;1.40;;
81318;SDS011;70784;48.420;14.830;2023-07-20T11:49:28;2.63;;;1.10;;
81318;SDS011;70784;48.420;14.830;2023-07-20T11:52:15;3.38;;;1.55;;
81318;SDS011;70784;48.420;14.830;2023-07-20T11:55:01;1.85;;;0.98;;
81318;SDS011;70784;48.420;14.830;2023-07-20T11:58:00;1.40;;;0.88;;
81318;SDS011;70784;48.420;14.830;2023-07-20T12:03:33;4.40;;;0.75;;
81318;SDS011;70784;48.420;14.830;2023-07-20T12:06:22;2.67;;;1.17;;
81318;SDS011;70784;48.420;14.830;2023-07-20T12:09:12;2.40;;;0.70;;
81318;SDS011;70784;48.420;14.830;2023-07-20T12:12:00;0.75;;;0.50;;
81318;SDS011;70784;48.420;14.830;2023-07-20T12:15:09;1.52;;;0.77;;
81318;SDS011;70784;48.420;14.830;2023-07-20T12:17:59;3.80;;;0.95;;
81318;SDS011;70784;48.420;14.830;2023-07-20T12:20:46;1.58;;;0.95;;
81318;SDS011;70784;48.420;14.830;2023-07-20T12:23:37;0.95;;;0.65;;
81318;SDS011;70784;48.420;14.830;2023-07-20T12:26:22;2.20;;;0.50;;
81318;SDS011;70784;48.420;14.830;2023-07-20T12:29:08;2.03;;;0.68;;
81318;SDS011;70784;48.420;14.830;2023-07-20T12:31:52;2.85;;;1.13;;
81318;SDS011;70784;48.420;14.830;2023-07-20T12:34:37;1.80;;;1.02;;
81318;SDS011;70784;48.420;14.830;2023-07-20T12:37:22;2.05;;;0.98;;
81318;SDS011;70784;48.420;14.830;2023-07-20T12:40:08;1.85;;;0.93;;
81318;SDS011;70784;48.420;14.830;2023-07-20T12:42:55;1.67;;;0.75;;
81318;SDS011;70784;48.420;14.830;2023-07-20T12:45:39;2.72;;;1.25;;
81318;SDS011;70784;48.420;14.830;2023-07-20T12:48:25;1.45;;;0.80;;
81318;SDS011;70784;48.420;14.830;2023-07-20T12:51:09;2.28;;;1.38;;
81318;SDS011;70784;48.420;14.830;2023-07-20T12:53:55;2.30;;;0.90;;
81318;SDS011;70784;48.420;14.830;2023-07-20T12:56:40;1.33;;;0.75;;
81318;SDS011;70784;48.420;14.830;2023-07-20T12:59:25;1.70;;;0.90;;
81318;SDS011;70784;48.420;14.830;2023-07-20T13:02:09;1.85;;;1.23;;
81318;SDS011;70784;48.420;14.830;2023-07-20T13:04:54;1.23;;;1.02;;
81318;SDS011;70784;48.420;14.830;2023-07-20T13:07:39;1.85;;;1.08;;
81318;SDS011;70784;48.420;14.830;2023-07-20T13:10:23;0.93;;;0.63;;
81318;SDS011;70784;48.420;14.830;2023-07-20T13:13:08;2.35;;;0.95;;
81318;SDS011;70784;48.420;14.830;2023-07-20T13:15:53;1.70;;;1.00;;
81318;SDS011;70784;48.420;14.830;2023-07-20T13:18:38;1.85;;;1.02;;
81318;SDS011;70784;48.420;14.830;2023-07-20T13:21:22;2.28;;;1.38;;
81318;SDS011;70784;48.420;14.830;2023-07-20T13:24:08;3.17;;;1.25;;
81318;SDS011;70784;48.420;14.830;2023-07-20T13:26:53;1.85;;;0.65;;
81318;SDS011;70784;48.420;14.830;2023-07-20T13:29:38;2.08;;;1.05;;
81318;SDS011;70784;48.420;14.830;2023-07-20T13:32:22;0.82;;;0.60;;
81318;SDS011;70784;48.420;14.830;2023-07-20T13:35:07;4.68;;;0.98;;
81318;SDS011;70784;48.420;14.830;2023-07-20T13:37:52;3.88;;;1.17;;
81318;SDS011;70784;48.420;14.830;2023-07-20T13:40:37;0.57;;;0.40;;
81318;SDS011;70784;48.420;14.830;2023-07-20T13:43:21;0.57;;;0.40;;
81318;SDS011;70784;48.420;14.830;2023-07-20T13:46:06;4.90;;;1.25;;
81318;SDS011;70784;48.420;14.830;2023-07-20T13:48:50;2.80;;;1.15;;
81318;SDS011;70784;48.420;14.830;2023-07-20T13:51:34;1.90;;;0.70;;
81318;SDS011;70784;48.420;14.830;2023-07-20T13:54:19;2.13;;;0.90;;
81318;SDS011;70784;48.420;14.830;2023-07-20T13:57:04;1.35;;;1.13;;
81318;SDS011;70784;48.420;14.830;2023-07-20T13:59:49;2.00;;;1.08;;
81318;SDS011;70784;48.420;14.830;2023-07-20T14:02:34;2.38;;;1.02;;
81318;SDS011;70784;48.420;14.830;2023-07-20T14:05:18;1.08;;;0.82;;
81318;SDS011;70784;48.420;14.830;2023-07-20T14:08:03;2.63;;;1.08;;
81318;SDS011;70784;48.420;14.830;2023-07-20T14:10:48;2.85;;;1.05;;
81318;SDS011;70784;48.420;14.830;2023-07-20T14:13:32;1.42;;;1.10;;
81318;SDS011;70784;48.420;14.830;2023-07-20T14:16:17;6.68;;;1.05;;
81318;SDS011;70784;48.420;14.830;2023-07-20T14:19:02;1.58;;;1.27;;
81318;SDS011;70784;48.420;14.830;2023-07-20T14:21:48;2.28;;;1.15;;
81318;SDS011;70784;48.420;14.830;2023-07-20T14:24:33;2.00;;;0.60;;
81318;SDS011;70784;48.420;14.830;2023-07-20T14:27:18;3.75;;;1.35;;
81318;SDS011;70784;48.420;14.830;2023-07-20T14:30:03;6.13;;;1.33;;
81318;SDS011;70784;48.420;14.830;2023-07-20T14:32:48;4.13;;;1.13;;
81318;SDS011;70784;48.420;14.830;2023-07-20T14:35:33;2.42;;;0.82;;
81318;SDS011;70784;48.420;14.830;2023-07-20T14:38:18;2.60;;;1.15;;
81318;SDS011;70784;48.420;14.830;2023-07-20T14:41:02;1.88;;;0.82;;
81318;SDS011;70784;48.420;14.830;2023-07-20T14:43:47;1.85;;;1.08;;
81318;SDS011;70784;48.420;14.830;2023-07-20T14:46:32;1.73;;;0.63;;
81318;SDS011;70784;48.420;14.830;2023-07-20T14:49:16;1.48;;;1.13;;
81318;SDS011;70784;48.420;14.830;2023-07-20T14:52:02;2.05;;;1.20;;
81318;SDS011;70784;48.420;14.830;2023-07-20T14:54:48;1.38;;;0.90;;
81318;SDS011;70784;48.420;14.830;2023-07-20T14:57:32;4.07;;;1.70;;
81318;SDS011;70784;48.420;14.830;2023-07-20T15:00:16;2.00;;;1.33;;
81318;SDS011;70784;48.420;14.830;2023-07-20T15:03:01;2.30;;;1.38;;
81318;SDS011;70784;48.420;14.830;2023-07-20T15:05:47;1.95;;;1.10;;
81318;SDS011;70784;48.420;14.830;2023-07-20T15:08:31;1.83;;;0.98;;
81318;SDS011;70784;48.420;14.830;2023-07-20T15:11:16;1.77;;;1.00;;
81318;SDS011;70784;48.420;14.830;2023-07-20T15:14:00;1.83;;;1.08;;
81318;SDS011;70784;48.420;14.830;2023-07-20T15:16:45;0.70;;;0.60;;
81318;SDS011;70784;48.420;14.830;2023-07-20T15:19:30;1.52;;;0.65;;
81318;SDS011;70784;48.420;14.830;2023-07-20T15:22:14;3.97;;;1.33;;
81318;SDS011;70784;48.420;14.830;2023-07-20T15:24:59;2.42;;;1.15;;
81318;SDS011;70784;48.420;14.830;2023-07-20T15:27:44;1.23;;;0.65;;
81318;SDS011;70784;48.420;14.830;2023-07-20T15:30:29;2.13;;;1.27;;
81318;SDS011;70784;48.420;14.830;2023-07-20T15:33:13;2.22;;;1.08;;
81318;SDS011;70784;48.420;14.830;2023-07-20T15:35:58;2.40;;;0.98;;
81318;SDS011;70784;48.420;14.830;2023-07-20T15:38:42;1.13;;;0.85;;
81318;SDS011;70784;48.420;14.830;2023-07-20T15:41:27;2.65;;;1.02;;
81318;SDS011;70784;48.420;14.830;2023-07-20T15:44:12;1.05;;;0.70;;
81318;SDS011;70784;48.420;14.830;2023-07-20T15:46:57;0.85;;;0.60;;
81318;SDS011;70784;48.420;14.830;2023-07-20T15:49:42;2.17;;;1.02;;
81318;SDS011;70784;48.420;14.830;2023-07-20T15:52:27;1.45;;;0.57;;
81318;SDS011;70784;48.420;14.830;2023-07-20T15:55:12;2.15;;;0.82;;
81318;SDS011;70784;48.420;14.830;2023-07-20T15:57:57;2.05;;;1.05;;
81318;SDS011;70784;48.420;14.830;2023-07-20T16:00:41;3.88;;;1.20;;
81318;SDS011;70784;48.420;14.830;2023-07-20T16:03:26;1.85;;;1.10;;
81318;SDS011;70784;48.420;14.830;2023-07-20T16:06:10;1.40;;;0.93;;
81318;SDS011;70784;48.420;14.830;2023-07-20T16:08:55;2.67;;;1.15;;
81318;SDS011;70784;48.420;14.830;2023-07-20T16:11:40;3.30;;;0.80;;
81318;SDS011;70784;48.420;14.830;2023-07-20T16:14:24;1.02;;;0.88;;
81318;SDS011;70784;48.420;14.830;2023-07-20T16:17:08;0.77;;;0.63;;
81318;SDS011;70784;48.420;14.830;2023-07-20T16:19:54;1.75;;;1.10;;
81318;SDS011;70784;48.420;14.830;2023-07-20T16:22:39;1.02;;;0.50;;
81318;SDS011;70784;48.420;14.830;2023-07-20T16:25:23;2.45;;;0.95;;
81318;SDS011;70784;48.420;14.830;2023-07-20T16:28:08;1.42;;;0.95;;
81318;SDS011;70784;48.420;14.830;2023-07-20T16:30:54;1.55;;;0.63;;
81318;SDS011;70784;48.420;14.830;2023-07-20T16:33:40;5.00;;;1.42;;
81318;SDS011;70784;48.420;14.830;2023-07-20T16:36:25;1.63;;;0.90;;
81318;SDS011;70784;48.420;14.830;2023-07-20T16:39:10;1.00;;;0.90;;
81318;SDS011;70784;48.420;14.830;2023-07-20T16:41:54;3.95;;;1.08;;
81318;SDS011;70784;48.420;14.830;2023-07-20T16:44:39;2.05;;;0.85;;